sensor_id;sensor_type;location;lat;lon;timestamp;temperature;humidity
40323;DHT22;26030;51.164;17.100;2023-04-25T00:03:15;23.90;64.00
40323;DHT22;26030;51.164;17.100;2023-04-25T00:08:22;23.90;64.30
40323;DHT22;26030;51.164;17.100;2023-04-25T00:13:26;23.90;64.90
40323;DHT22;26030;51.164;17.100;2023-04-25T00:18:30;23.90;64.70
40323;DHT22;26030;51.164;17.100;2023-04-25T00:23:36;23.80;64.90
40323;DHT22;26030;51.164;17.100;2023-04-25T00:28:42;23.80;65.10
40323;DHT22;26030;51.164;17.100;2023-04-25T00:33:46;23.80;65.10
40323;DHT22;26030;51.164;17.100;2023-04-25T00:38:52;23.80;65.20
40323;DHT22;26030;51.164;17.100;2023-04-25T00:43:57;23.80;65.30
40323;DHT22;26030;51.164;17.100;2023-04-25T00:49:03;23.80;65.30
40323;DHT22;26030;51.164;17.100;2023-04-25T00:54:07;23.90;65.60
40323;DHT22;26030;51.164;17.100;2023-04-25T00:59:11;23.80;65.70
40323;DHT22;26030;51.164;17.100;2023-04-25T01:04:16;23.90;65.40
40323;DHT22;26030;51.164;17.100;2023-04-25T01:09:21;23.90;65.20
40323;DHT22;26030;51.164;17.100;2023-04-25T01:14:27;24.00;64.70
40323;DHT22;26030;51.164;17.100;2023-04-25T01:19:31;24.00;64.70
40323;DHT22;26030;51.164;17.100;2023-04-25T01:24:35;23.90;65.50
40323;DHT22;26030;51.164;17.100;2023-04-25T01:29:39;23.80;65.40
40323;DHT22;26030;51.164;17.100;2023-04-25T01:34:44;23.70;64.80
40323;DHT22;26030;51.164;17.100;2023-04-25T01:39:48;23.70;64.90
40323;DHT22;26030;51.164;17.100;2023-04-25T01:44:53;23.60;64.90
40323;DHT22;26030;51.164;17.100;2023-04-25T01:49:58;23.60;65.00
40323;DHT22;26030;51.164;17.100;2023-04-25T01:55:02;23.50;64.90
40323;DHT22;26030;51.164;17.100;2023-04-25T02:00:09;23.50;64.90
40323;DHT22;26030;51.164;17.100;2023-04-25T02:05:17;23.50;64.90
40323;DHT22;26030;51.164;17.100;2023-04-25T02:10:21;23.50;64.60
40323;DHT22;26030;51.164;17.100;2023-04-25T02:15:45;23.40;65.00
40323;DHT22;26030;51.164;17.100;2023-04-25T02:20:53;23.40;65.10
40323;DHT22;26030;51.164;17.100;2023-04-25T02:25:57;23.40;64.40
40323;DHT22;26030;51.164;17.100;2023-04-25T02:31:01;23.40;65.20
40323;DHT22;26030;51.164;17.100;2023-04-25T02:36:06;23.40;64.80
40323;DHT22;26030;51.164;17.100;2023-04-25T02:41:11;23.30;64.70
40323;DHT22;26030;51.164;17.100;2023-04-25T02:46:16;23.30;64.80
40323;DHT22;26030;51.164;17.100;2023-04-25T02:51:31;23.30;64.70
40323;DHT22;26030;51.164;17.100;2023-04-25T02:56:36;23.30;64.60
40323;DHT22;26030;51.164;17.100;2023-04-25T03:01:42;23.30;64.80
40323;DHT22;26030;51.164;17.100;2023-04-25T03:06:46;23.30;64.50
40323;DHT22;26030;51.164;17.100;2023-04-25T03:11:51;23.20;64.60
40323;DHT22;26030;51.164;17.100;2023-04-25T03:16:55;23.10;64.70
40323;DHT22;26030;51.164;17.100;2023-04-25T03:21:59;23.10;64.70
40323;DHT22;26030;51.164;17.100;2023-04-25T03:27:04;23.10;64.70
40323;DHT22;26030;51.164;17.100;2023-04-25T03:32:08;23.10;64.70
40323;DHT22;26030;51.164;17.100;2023-04-25T03:37:13;23.10;64.60
40323;DHT22;26030;51.164;17.100;2023-04-25T03:42:18;23.00;64.60
40323;DHT22;26030;51.164;17.100;2023-04-25T03:47:23;23.00;64.80
40323;DHT22;26030;51.164;17.100;2023-04-25T03:52:28;23.00;64.50
40323;DHT22;26030;51.164;17.100;2023-04-25T03:57:32;23.00;64.80
40323;DHT22;26030;51.164;17.100;2023-04-25T04:02:37;23.00;64.40
40323;DHT22;26030;51.164;17.100;2023-04-25T04:07:46;22.90;64.50
40323;DHT22;26030;51.164;17.100;2023-04-25T04:12:52;22.90;64.40
40323;DHT22;26030;51.164;17.100;2023-04-25T04:17:56;22.90;64.40
40323;DHT22;26030;51.164;17.100;2023-04-25T04:23:01;22.90;64.40
40323;DHT22;26030;51.164;17.100;2023-04-25T04:28:06;22.90;64.70
40323;DHT22;26030;51.164;17.100;2023-04-25T04:33:29;23.00;64.70
40323;DHT22;26030;51.164;17.100;2023-04-25T04:38:38;23.30;63.90
40323;DHT22;26030;51.164;17.100;2023-04-25T04:43:50;23.60;63.00
40323;DHT22;26030;51.164;17.100;2023-04-25T04:49:05;23.80;62.30
40323;DHT22;26030;51.164;17.100;2023-04-25T04:54:19;23.90;62.10
40323;DHT22;26030;51.164;17.100;2023-04-25T04:59:40;24.00;62.00
40323;DHT22;26030;51.164;17.100;2023-04-25T05:05:23;24.00;61.70
40323;DHT22;26030;51.164;17.100;2023-04-25T05:10:46;24.10;61.30
40323;DHT22;26030;51.164;17.100;2023-04-25T05:16:13;24.20;61.20
40323;DHT22;26030;51.164;17.100;2023-04-25T05:21:28;24.20;61.00
40323;DHT22;26030;51.164;17.100;2023-04-25T05:26:51;24.20;61.10
40323;DHT22;26030;51.164;17.100;2023-04-25T05:32:22;24.20;61.20
40323;DHT22;26030;51.164;17.100;2023-04-25T05:37:28;24.20;61.20
40323;DHT22;26030;51.164;17.100;2023-04-25T05:42:43;24.20;61.20
40323;DHT22;26030;51.164;17.100;2023-04-25T05:47:56;24.10;61.40
40323;DHT22;26030;51.164;17.100;2023-04-25T05:53:33;24.10;61.50
40323;DHT22;26030;51.164;17.100;2023-04-25T05:58:38;24.10;62.10
40323;DHT22;26030;51.164;17.100;2023-04-25T06:03:43;24.10;62.20
40323;DHT22;26030;51.164;17.100;2023-04-25T06:08:47;24.10;62.30
40323;DHT22;26030;51.164;17.100;2023-04-25T06:13:51;24.10;62.60
40323;DHT22;26030;51.164;17.100;2023-04-25T06:18:56;24.10;62.30
40323;DHT22;26030;51.164;17.100;2023-04-25T06:24:01;24.10;62.60
40323;DHT22;26030;51.164;17.100;2023-04-25T06:29:08;24.10;62.40
40323;DHT22;26030;51.164;17.100;2023-04-25T06:34:12;24.10;62.50
40323;DHT22;26030;51.164;17.100;2023-04-25T06:39:17;24.10;62.50
40323;DHT22;26030;51.164;17.100;2023-04-25T06:44:24;24.10;62.60
40323;DHT22;26030;51.164;17.100;2023-04-25T06:49:31;24.00;62.80
40323;DHT22;26030;51.164;17.100;2023-04-25T06:54:36;24.00;63.00
40323;DHT22;26030;51.164;17.100;2023-04-25T06:59:57;24.10;62.30
40323;DHT22;26030;51.164;17.100;2023-04-25T07:05:05;24.30;62.10
40323;DHT22;26030;51.164;17.100;2023-04-25T07:10:09;24.30;62.00
40323;DHT22;26030;51.164;17.100;2023-04-25T07:15:13;24.30;61.90
40323;DHT22;26030;51.164;17.100;2023-04-25T07:20:19;24.30;61.80
40323;DHT22;26030;51.164;17.100;2023-04-25T07:25:24;24.20;61.70
40323;DHT22;26030;51.164;17.100;2023-04-25T07:30:29;24.30;61.80
40323;DHT22;26030;51.164;17.100;2023-04-25T07:35:33;24.20;62.00
40323;DHT22;26030;51.164;17.100;2023-04-25T07:40:37;24.10;61.90
40323;DHT22;26030;51.164;17.100;2023-04-25T07:45:44;24.00;62.20
40323;DHT22;26030;51.164;17.100;2023-04-25T07:50:49;23.90;62.30
40323;DHT22;26030;51.164;17.100;2023-04-25T07:55:52;23.80;62.20
40323;DHT22;26030;51.164;17.100;2023-04-25T08:00:57;23.80;62.50
40323;DHT22;26030;51.164;17.100;2023-04-25T08:06:21;23.80;62.30
40323;DHT22;26030;51.164;17.100;2023-04-25T08:11:42;23.80;62.70
40323;DHT22;26030;51.164;17.100;2023-04-25T08:16:48;23.80;62.70
40323;DHT22;26030;51.164;17.100;2023-04-25T08:21:53;23.70;62.80
40323;DHT22;26030;51.164;17.100;2023-04-25T08:27:04;23.80;63.10
40323;DHT22;26030;51.164;17.100;2023-04-25T08:32:11;23.70;62.80
40323;DHT22;26030;51.164;17.100;2023-04-25T08:37:18;23.70;63.10
40323;DHT22;26030;51.164;17.100;2023-04-25T08:42:33;23.70;62.80
40323;DHT22;26030;51.164;17.100;2023-04-25T08:47:40;23.70;62.70
40323;DHT22;26030;51.164;17.100;2023-04-25T08:52:46;23.70;63.20
40323;DHT22;26030;51.164;17.100;2023-04-25T08:57:54;23.60;62.70
40323;DHT22;26030;51.164;17.100;2023-04-25T09:03:00;23.60;62.90
40323;DHT22;26030;51.164;17.100;2023-04-25T09:08:06;23.60;62.50
40323;DHT22;26030;51.164;17.100;2023-04-25T09:13:12;23.60;62.40
40323;DHT22;26030;51.164;17.100;2023-04-25T09:18:57;23.60;62.40
40323;DHT22;26030;51.164;17.100;2023-04-25T09:24:01;23.60;63.20
40323;DHT22;26030;51.164;17.100;2023-04-25T09:29:07;23.70;65.40
40323;DHT22;26030;51.164;17.100;2023-04-25T09:34:15;23.70;65.00
40323;DHT22;26030;51.164;17.100;2023-04-25T09:39:28;23.70;64.50
40323;DHT22;26030;51.164;17.100;2023-04-25T09:44:41;23.70;63.90
40323;DHT22;26030;51.164;17.100;2023-04-25T09:49:50;23.70;63.80
40323;DHT22;26030;51.164;17.100;2023-04-25T09:54:57;23.70;63.50
40323;DHT22;26030;51.164;17.100;2023-04-25T10:00:07;23.70;63.30
40323;DHT22;26030;51.164;17.100;2023-04-25T10:05:18;23.70;63.20
40323;DHT22;26030;51.164;17.100;2023-04-25T10:10:23;23.70;63.20
40323;DHT22;26030;51.164;17.100;2023-04-25T10:15:34;23.70;63.10
40323;DHT22;26030;51.164;17.100;2023-04-25T10:20:42;23.70;63.00
40323;DHT22;26030;51.164;17.100;2023-04-25T10:25:47;23.70;62.90
40323;DHT22;26030;51.164;17.100;2023-04-25T10:31:02;23.80;62.80
40323;DHT22;26030;51.164;17.100;2023-04-25T10:36:11;23.70;62.60
40323;DHT22;26030;51.164;17.100;2023-04-25T10:41:21;23.70;62.80
40323;DHT22;26030;51.164;17.100;2023-04-25T10:46:29;23.80;62.40
40323;DHT22;26030;51.164;17.100;2023-04-25T10:51:35;23.80;62.00
40323;DHT22;26030;51.164;17.100;2023-04-25T10:56:58;23.80;62.10
40323;DHT22;26030;51.164;17.100;2023-04-25T11:02:02;23.80;62.00
40323;DHT22;26030;51.164;17.100;2023-04-25T11:13:01;23.90;62.00
40323;DHT22;26030;51.164;17.100;2023-04-25T11:18:06;23.90;61.80
40323;DHT22;26030;51.164;17.100;2023-04-25T11:23:13;23.90;61.70
40323;DHT22;26030;51.164;17.100;2023-04-25T11:28:22;23.90;61.70
40323;DHT22;26030;51.164;17.100;2023-04-25T11:33:29;23.90;61.30
40323;DHT22;26030;51.164;17.100;2023-04-25T11:38:34;23.90;61.40
40323;DHT22;26030;51.164;17.100;2023-04-25T11:43:38;23.90;59.60
40323;DHT22;26030;51.164;17.100;2023-04-25T11:48:45;23.70;55.60
40323;DHT22;26030;51.164;17.100;2023-04-25T11:53:50;23.60;51.60
40323;DHT22;26030;51.164;17.100;2023-04-25T11:58:58;23.80;50.30
40323;DHT22;26030;51.164;17.100;2023-04-25T12:04:10;24.00;48.00
40323;DHT22;26030;51.164;17.100;2023-04-25T12:09:16;24.10;48.40
40323;DHT22;26030;51.164;17.100;2023-04-25T12:14:27;24.30;49.80
40323;DHT22;26030;51.164;17.100;2023-04-25T12:19:34;24.50;50.70
40323;DHT22;26030;51.164;17.100;2023-04-25T12:24:39;24.60;51.40
40323;DHT22;26030;51.164;17.100;2023-04-25T12:29:50;24.70;51.60
40323;DHT22;26030;51.164;17.100;2023-04-25T12:34:56;24.70;51.90
40323;DHT22;26030;51.164;17.100;2023-04-25T12:40:00;24.70;52.00
40323;DHT22;26030;51.164;17.100;2023-04-25T12:45:05;24.70;52.10
40323;DHT22;26030;51.164;17.100;2023-04-25T12:50:10;24.70;52.50
40323;DHT22;26030;51.164;17.100;2023-04-25T12:55:16;24.70;52.50
40323;DHT22;26030;51.164;17.100;2023-04-25T13:00:20;24.70;52.80
40323;DHT22;26030;51.164;17.100;2023-04-25T13:05:24;24.70;53.30
40323;DHT22;26030;51.164;17.100;2023-04-25T13:10:29;24.70;53.60
40323;DHT22;26030;51.164;17.100;2023-04-25T13:15:33;24.70;54.20
40323;DHT22;26030;51.164;17.100;2023-04-25T13:20:37;24.60;54.90
40323;DHT22;26030;51.164;17.100;2023-04-25T13:25:41;24.70;54.90
40323;DHT22;26030;51.164;17.100;2023-04-25T13:30:46;24.60;55.10
40323;DHT22;26030;51.164;17.100;2023-04-25T13:35:51;24.60;55.00
40323;DHT22;26030;51.164;17.100;2023-04-25T13:41:00;24.50;55.10
40323;DHT22;26030;51.164;17.100;2023-04-25T13:46:04;24.50;55.40
40323;DHT22;26030;51.164;17.100;2023-04-25T13:51:08;24.50;55.80
40323;DHT22;26030;51.164;17.100;2023-04-25T13:56:12;24.50;56.10
40323;DHT22;26030;51.164;17.100;2023-04-25T14:01:16;24.50;55.80
40323;DHT22;26030;51.164;17.100;2023-04-25T14:06:23;24.50;56.40
40323;DHT22;26030;51.164;17.100;2023-04-25T14:11:27;24.40;55.90
40323;DHT22;26030;51.164;17.100;2023-04-25T14:16:31;24.50;56.40
40323;DHT22;26030;51.164;17.100;2023-04-25T14:21:35;24.50;57.00
40323;DHT22;26030;51.164;17.100;2023-04-25T14:26:40;24.50;56.70
40323;DHT22;26030;51.164;17.100;2023-04-25T14:31:45;24.30;58.00
40323;DHT22;26030;51.164;17.100;2023-04-25T14:36:49;24.30;58.60
40323;DHT22;26030;51.164;17.100;2023-04-25T14:41:53;24.30;57.60
40323;DHT22;26030;51.164;17.100;2023-04-25T14:46:57;24.40;58.50
40323;DHT22;26030;51.164;17.100;2023-04-25T14:52:02;24.30;60.10
40323;DHT22;26030;51.164;17.100;2023-04-25T14:57:06;24.30;58.10
40323;DHT22;26030;51.164;17.100;2023-04-25T15:02:11;24.20;59.00
40323;DHT22;26030;51.164;17.100;2023-04-25T15:07:15;24.20;58.70
40323;DHT22;26030;51.164;17.100;2023-04-25T15:12:20;24.20;58.80
40323;DHT22;26030;51.164;17.100;2023-04-25T15:17:24;24.10;58.80
40323;DHT22;26030;51.164;17.100;2023-04-25T15:22:29;24.10;58.60
40323;DHT22;26030;51.164;17.100;2023-04-25T15:27:33;24.10;58.70
40323;DHT22;26030;51.164;17.100;2023-04-25T15:32:41;24.10;59.10
40323;DHT22;26030;51.164;17.100;2023-04-25T15:37:46;24.10;58.50
40323;DHT22;26030;51.164;17.100;2023-04-25T15:42:50;24.00;58.60
40323;DHT22;26030;51.164;17.100;2023-04-25T15:47:55;24.10;59.30
40323;DHT22;26030;51.164;17.100;2023-04-25T15:52:59;24.10;58.30
40323;DHT22;26030;51.164;17.100;2023-04-25T15:58:04;24.00;58.40
40323;DHT22;26030;51.164;17.100;2023-04-25T16:03:08;23.90;58.10
40323;DHT22;26030;51.164;17.100;2023-04-25T16:08:16;23.90;58.00
40323;DHT22;26030;51.164;17.100;2023-04-25T16:13:21;24.10;58.10
40323;DHT22;26030;51.164;17.100;2023-04-25T16:18:25;24.10;57.10
40323;DHT22;26030;51.164;17.100;2023-04-25T16:23:29;24.00;57.70
40323;DHT22;26030;51.164;17.100;2023-04-25T16:28:34;24.00;57.50
40323;DHT22;26030;51.164;17.100;2023-04-25T16:33:38;23.90;57.90
40323;DHT22;26030;51.164;17.100;2023-04-25T16:38:42;23.70;58.10
40323;DHT22;26030;51.164;17.100;2023-04-25T16:43:46;23.90;57.90
40323;DHT22;26030;51.164;17.100;2023-04-25T16:48:52;24.10;57.40
40323;DHT22;26030;51.164;17.100;2023-04-25T16:53:57;24.10;57.20
40323;DHT22;26030;51.164;17.100;2023-04-25T16:59:04;23.90;57.50
40323;DHT22;26030;51.164;17.100;2023-04-25T17:04:09;23.70;58.30
40323;DHT22;26030;51.164;17.100;2023-04-25T17:09:15;23.60;58.60
40323;DHT22;26030;51.164;17.100;2023-04-25T17:14:20;23.70;59.10
40323;DHT22;26030;51.164;17.100;2023-04-25T17:19:24;23.70;58.50
40323;DHT22;26030;51.164;17.100;2023-04-25T17:24:28;23.80;57.80
40323;DHT22;26030;51.164;17.100;2023-04-25T17:29:34;23.80;57.60
40323;DHT22;26030;51.164;17.100;2023-04-25T17:34:39;23.70;57.70
40323;DHT22;26030;51.164;17.100;2023-04-25T17:39:47;23.60;58.40
40323;DHT22;26030;51.164;17.100;2023-04-25T17:44:53;23.60;58.60
40323;DHT22;26030;51.164;17.100;2023-04-25T17:50:00;23.60;58.50
40323;DHT22;26030;51.164;17.100;2023-04-25T17:55:06;23.60;58.70
40323;DHT22;26030;51.164;17.100;2023-04-25T18:00:11;23.50;59.20
40323;DHT22;26030;51.164;17.100;2023-04-25T18:05:18;23.50;59.00
40323;DHT22;26030;51.164;17.100;2023-04-25T18:10:24;23.40;58.80
40323;DHT22;26030;51.164;17.100;2023-04-25T18:15:29;23.40;59.00
40323;DHT22;26030;51.164;17.100;2023-04-25T18:20:34;23.40;59.00
40323;DHT22;26030;51.164;17.100;2023-04-25T18:25:40;23.40;58.60
40323;DHT22;26030;51.164;17.100;2023-04-25T18:30:45;23.40;58.80
40323;DHT22;26030;51.164;17.100;2023-04-25T18:35:52;23.40;58.40
40323;DHT22;26030;51.164;17.100;2023-04-25T18:41:04;23.40;58.50
40323;DHT22;26030;51.164;17.100;2023-04-25T18:46:31;23.50;58.80
40323;DHT22;26030;51.164;17.100;2023-04-25T18:51:37;23.50;59.90
40323;DHT22;26030;51.164;17.100;2023-04-25T18:56:43;23.50;61.20
40323;DHT22;26030;51.164;17.100;2023-04-25T19:01:48;23.60;61.60
40323;DHT22;26030;51.164;17.100;2023-04-25T19:06:55;23.50;62.00
40323;DHT22;26030;51.164;17.100;2023-04-25T19:12:04;23.50;62.40
40323;DHT22;26030;51.164;17.100;2023-04-25T19:17:10;23.60;63.10
40323;DHT22;26030;51.164;17.100;2023-04-25T19:22:18;23.60;62.40
40323;DHT22;26030;51.164;17.100;2023-04-25T19:27:23;23.50;61.90
40323;DHT22;26030;51.164;17.100;2023-04-25T19:32:30;23.50;61.40
40323;DHT22;26030;51.164;17.100;2023-04-25T19:37:36;23.40;61.60
40323;DHT22;26030;51.164;17.100;2023-04-25T19:42:43;23.30;62.10
40323;DHT22;26030;51.164;17.100;2023-04-25T19:47:49;23.30;62.10
40323;DHT22;26030;51.164;17.100;2023-04-25T19:52:55;23.30;61.70
40323;DHT22;26030;51.164;17.100;2023-04-25T19:58:02;23.30;61.40
40323;DHT22;26030;51.164;17.100;2023-04-25T20:03:10;23.30;62.00
40323;DHT22;26030;51.164;17.100;2023-04-25T20:08:18;23.30;61.50
40323;DHT22;26030;51.164;17.100;2023-04-25T20:14:02;23.20;62.20
40323;DHT22;26030;51.164;17.100;2023-04-25T20:19:11;23.30;61.80
40323;DHT22;26030;51.164;17.100;2023-04-25T20:24:15;23.30;61.50
40323;DHT22;26030;51.164;17.100;2023-04-25T20:29:20;23.30;61.80
40323;DHT22;26030;51.164;17.100;2023-04-25T20:34:26;23.10;62.10
40323;DHT22;26030;51.164;17.100;2023-04-25T20:39:33;23.10;62.30
40323;DHT22;26030;51.164;17.100;2023-04-25T20:44:38;23.00;62.80
40323;DHT22;26030;51.164;17.100;2023-04-25T20:49:43;23.00;62.60
40323;DHT22;26030;51.164;17.100;2023-04-25T20:54:48;23.00;62.70
40323;DHT22;26030;51.164;17.100;2023-04-25T20:59:55;23.10;62.80
40323;DHT22;26030;51.164;17.100;2023-04-25T21:05:00;23.00;62.70
40323;DHT22;26030;51.164;17.100;2023-04-25T21:10:04;23.00;62.80
40323;DHT22;26030;51.164;17.100;2023-04-25T21:15:09;22.90;62.80
40323;DHT22;26030;51.164;17.100;2023-04-25T21:20:15;23.00;62.70
40323;DHT22;26030;51.164;17.100;2023-04-25T21:25:24;23.10;63.00
40323;DHT22;26030;51.164;17.100;2023-04-25T21:30:42;23.20;62.70
40323;DHT22;26030;51.164;17.100;2023-04-25T21:35:47;23.70;61.80
40323;DHT22;26030;51.164;17.100;2023-04-25T21:40:57;23.90;61.10
40323;DHT22;26030;51.164;17.100;2023-04-25T21:46:04;24.00;61.10
40323;DHT22;26030;51.164;17.100;2023-04-25T21:51:26;24.10;60.90
40323;DHT22;26030;51.164;17.100;2023-04-25T21:56:39;24.20;60.40
40323;DHT22;26030;51.164;17.100;2023-04-25T22:01:52;24.20;60.10
40323;DHT22;26030;51.164;17.100;2023-04-25T22:07:06;24.30;60.30
40323;DHT22;26030;51.164;17.100;2023-04-25T22:12:18;24.40;59.80
40323;DHT22;26030;51.164;17.100;2023-04-25T22:23:19;24.50;59.50
40323;DHT22;26030;51.164;17.100;2023-04-25T22:28:24;24.40;59.40
40323;DHT22;26030;51.164;17.100;2023-04-25T22:33:31;24.40;59.30
40323;DHT22;26030;51.164;17.100;2023-04-25T22:38:36;24.30;59.70
40323;DHT22;26030;51.164;17.100;2023-04-25T22:43:43;24.20;60.00
40323;DHT22;26030;51.164;17.100;2023-04-25T22:48:47;24.20;60.10
40323;DHT22;26030;51.164;17.100;2023-04-25T22:53:52;24.10;60.70
40323;DHT22;26030;51.164;17.100;2023-04-25T22:58:56;24.10;61.00
40323;DHT22;26030;51.164;17.100;2023-04-25T23:04:01;24.00;61.10
40323;DHT22;26030;51.164;17.100;2023-04-25T23:09:05;23.90;60.90
40323;DHT22;26030;51.164;17.100;2023-04-25T23:14:14;23.90;61.50
40323;DHT22;26030;51.164;17.100;2023-04-25T23:19:20;23.80;61.40
40323;DHT22;26030;51.164;17.100;2023-04-25T23:24:24;23.70;61.40
40323;DHT22;26030;51.164;17.100;2023-04-25T23:29:29;23.70;61.50
40323;DHT22;26030;51.164;17.100;2023-04-25T23:34:36;23.70;61.40
40323;DHT22;26030;51.164;17.100;2023-04-25T23:39:48;23.70;61.50
40323;DHT22;26030;51.164;17.100;2023-04-25T23:44:54;23.60;61.60
40323;DHT22;26030;51.164;17.100;2023-04-25T23:50:00;23.50;61.60
40323;DHT22;26030;51.164;17.100;2023-04-25T23:55:05;23.40;61.50
